createdAt,value
2019-03-09T00:04:01.988Z,3.73
2019-03-09T00:08:57.925Z,3.50
2019-03-09T00:13:53.840Z,3.53
2019-03-09T00:18:49.798Z,2.70
2019-03-09T00:23:47.622Z,3.30
2019-03-09T00:28:57.491Z,3.43
2019-03-09T00:33:53.540Z,3.03
2019-03-09T00:38:49.475Z,4.27
2019-03-09T00:43:45.472Z,2.60
2019-03-09T00:48:41.407Z,3.67
2019-03-09T00:53:37.326Z,3.23
2019-03-09T00:58:33.244Z,5.70
2019-03-09T01:03:30.858Z,6.00
2019-03-09T01:08:26.750Z,5.20
2019-03-09T01:13:22.671Z,2.83
2019-03-09T01:18:18.634Z,3.37
2019-03-09T01:23:16.456Z,2.80
2019-03-09T01:28:12.383Z,2.77
2019-03-09T01:33:12.121Z,3.20
2019-03-09T01:38:07.999Z,3.00
2019-03-09T01:43:04.126Z,2.87
2019-03-09T01:48:00.153Z,1.97
2019-03-09T01:52:56.138Z,2.63
2019-03-09T01:57:52.079Z,3.40
2019-03-09T02:02:52.607Z,3.13
2019-03-09T02:07:48.726Z,4.50
2019-03-09T02:12:45.056Z,4.17
2019-03-09T02:17:41.066Z,1.93
2019-03-09T02:22:37.117Z,2.30
2019-03-09T02:27:33.042Z,1.90
2019-03-09T02:32:30.441Z,1.70
2019-03-09T02:37:26.700Z,3.03
2019-03-09T02:42:22.644Z,3.00
2019-03-09T02:47:18.732Z,2.93
2019-03-09T02:52:14.672Z,2.60
2019-03-09T02:57:10.623Z,2.43
2019-03-09T03:02:11.457Z,1.97
2019-03-09T03:07:07.363Z,2.73
2019-03-09T03:12:03.530Z,2.70
2019-03-09T03:16:59.442Z,2.40
2019-03-09T03:21:55.477Z,4.10
2019-03-09T03:26:51.440Z,3.90
2019-03-09T03:31:47.408Z,4.20
2019-03-09T03:36:43.344Z,5.13
2019-03-09T03:41:39.333Z,3.90
2019-03-09T03:46:35.319Z,3.80
2019-03-09T03:51:31.230Z,4.30
2019-03-09T03:56:27.297Z,3.97
2019-03-09T04:01:23.516Z,4.10
2019-03-09T04:06:19.593Z,3.40
2019-03-09T04:11:15.601Z,3.30
2019-03-09T04:16:11.558Z,4.30
2019-03-09T04:21:07.583Z,4.20
2019-03-09T04:26:03.512Z,2.63
2019-03-09T04:30:59.503Z,3.87
2019-03-09T04:35:55.429Z,3.40
2019-03-09T04:40:51.390Z,4.27
2019-03-09T04:45:47.301Z,4.33
2019-03-09T04:50:43.234Z,6.80
2019-03-09T04:55:39.352Z,6.90
2019-03-09T05:00:35.320Z,8.30
2019-03-09T05:05:31.236Z,11.07
2019-03-09T05:10:45.918Z,8.20
2019-03-09T05:15:41.896Z,7.87
2019-03-09T05:20:37.918Z,9.37
2019-03-09T05:25:33.836Z,8.50
2019-03-09T05:30:57.612Z,9.20
2019-03-09T05:35:53.535Z,6.27
2019-03-09T05:40:49.554Z,5.90
2019-03-09T05:45:45.481Z,9.30
2019-03-09T05:50:42.022Z,4.47
2019-03-09T05:55:37.943Z,6.13
2019-03-09T06:00:34.784Z,3.83
2019-03-09T06:05:41.681Z,3.90
2019-03-09T06:10:37.702Z,3.63
2019-03-09T06:15:33.715Z,3.47
2019-03-09T06:20:29.632Z,5.37
2019-03-09T06:25:25.557Z,5.67
2019-03-09T06:30:21.494Z,4.67
2019-03-09T06:35:20.511Z,3.50
2019-03-09T06:40:16.451Z,4.13
2019-03-09T06:45:12.476Z,2.00
2019-03-09T06:50:13.170Z,2.23
2019-03-09T06:55:11.085Z,3.03
2019-03-09T07:00:27.702Z,3.30
2019-03-09T07:05:23.616Z,4.27
2019-03-09T07:10:19.531Z,4.63
2019-03-09T07:15:21.733Z,5.73
2019-03-09T07:20:17.748Z,5.77
2019-03-09T07:25:13.657Z,5.80
2019-03-09T07:30:35.972Z,7.70
2019-03-09T07:35:31.881Z,6.67
2019-03-09T07:40:27.915Z,3.30
2019-03-09T07:45:23.823Z,5.87
2019-03-09T07:50:19.725Z,6.10
2019-03-09T07:55:20.070Z,4.40
2019-03-09T08:00:19.868Z,6.20
2019-03-09T08:05:16.925Z,4.27
2019-03-09T08:10:16.653Z,3.73
2019-03-09T08:15:14.961Z,6.50
2019-03-09T08:20:12.814Z,5.63
2019-03-09T08:25:19.312Z,4.47
2019-03-09T08:30:20.042Z,5.40
2019-03-09T08:35:16.868Z,5.63
2019-03-09T08:40:14.701Z,4.20
2019-03-09T08:45:18.852Z,3.50
2019-03-09T08:50:16.638Z,6.40
2019-03-09T08:55:13.787Z,5.43
2019-03-09T09:00:13.652Z,5.50
2019-03-09T09:05:09.661Z,5.20
2019-03-09T09:10:08.076Z,3.67
2019-03-09T09:15:07.230Z,5.33
2019-03-09T09:20:07.014Z,4.60
2019-03-09T09:25:05.363Z,3.87
2019-03-09T09:30:01.482Z,4.20
2019-03-09T09:34:57.408Z,4.27
2019-03-09T09:39:53.329Z,7.23
2019-03-09T09:44:49.237Z,6.60
2019-03-09T09:49:45.198Z,5.47
2019-03-09T09:54:41.127Z,9.13
2019-03-09T09:59:37.083Z,6.50
2019-03-09T10:04:33.245Z,9.00
2019-03-09T10:09:30.046Z,8.27
2019-03-09T10:14:25.931Z,10.47
2019-03-09T10:19:23.949Z,7.80
2019-03-09T10:24:19.918Z,7.30
2019-03-09T10:29:15.822Z,8.30
2019-03-09T10:34:12.430Z,7.03
2019-03-09T10:39:08.300Z,8.23
2019-03-09T10:44:04.210Z,7.27
2019-03-09T10:49:00.121Z,8.20
2019-03-09T10:53:56.024Z,7.73
2019-03-09T10:58:52.002Z,7.07
2019-03-09T11:03:48.511Z,7.30
2019-03-09T11:08:44.391Z,6.03
2019-03-09T11:13:40.296Z,7.33
2019-03-09T11:18:36.326Z,6.00
2019-03-09T11:23:34.369Z,5.70
2019-03-09T11:28:30.161Z,5.67
2019-03-09T11:33:28.862Z,4.90
2019-03-09T11:38:24.862Z,4.37
2019-03-09T11:43:20.781Z,4.80
2019-03-09T11:48:16.787Z,6.43
2019-03-09T11:53:12.720Z,3.87
2019-03-09T11:58:09.089Z,2.90
2019-03-09T12:03:05.080Z,4.60
2019-03-09T12:08:01.044Z,2.93
2019-03-09T12:12:56.952Z,1.90
2019-03-09T12:17:52.872Z,2.80
2019-03-09T12:22:48.786Z,2.77
2019-03-09T12:27:44.992Z,2.73
2019-03-09T12:32:40.907Z,1.83
2019-03-09T12:37:36.832Z,1.83
2019-03-09T12:42:32.763Z,2.07
2019-03-09T12:47:28.677Z,2.00
2019-03-09T12:52:24.581Z,2.60
2019-03-09T12:57:20.497Z,1.77
2019-03-09T13:02:16.403Z,3.00
2019-03-09T13:07:12.294Z,3.03
2019-03-09T13:12:08.906Z,2.80
2019-03-09T13:17:04.916Z,1.70
2019-03-09T13:22:00.919Z,1.83
2019-03-09T13:26:56.832Z,2.50
2019-03-09T13:31:52.746Z,2.10
2019-03-09T13:36:48.761Z,1.73
2019-03-09T13:41:44.838Z,3.10
2019-03-09T13:46:40.834Z,1.90
2019-03-09T13:51:36.741Z,2.70
2019-03-09T13:56:32.712Z,2.37
2019-03-09T14:01:28.641Z,1.83
2019-03-09T14:06:24.676Z,2.13
2019-03-09T14:11:20.609Z,2.67
2019-03-09T14:16:16.522Z,1.53
2019-03-09T14:21:15.443Z,3.23
2019-03-09T14:26:11.393Z,2.20
2019-03-09T14:31:07.328Z,2.20
2019-03-09T14:36:03.265Z,3.77
2019-03-09T14:40:59.302Z,2.40
2019-03-09T14:45:56.388Z,3.97
2019-03-09T14:50:53.589Z,3.40
2019-03-09T14:55:50.543Z,3.00
2019-03-09T15:00:47.863Z,1.90
2019-03-09T15:05:43.890Z,2.57
2019-03-09T15:10:39.932Z,3.40
2019-03-09T15:15:35.845Z,4.13
2019-03-09T15:20:31.894Z,3.50
2019-03-09T15:25:33.440Z,2.60
2019-03-09T15:30:29.413Z,2.90
2019-03-09T15:35:25.519Z,2.73
2019-03-09T15:40:21.606Z,2.07
2019-03-09T15:45:19.288Z,4.10
2019-03-09T15:50:16.446Z,3.43
2019-03-09T15:55:12.853Z,1.87
2019-03-09T16:00:22.746Z,3.00
2019-03-09T16:05:18.665Z,3.13
2019-03-09T16:10:18.694Z,2.30
2019-03-09T16:15:15.506Z,2.47
2019-03-09T16:20:40.852Z,2.43
2019-03-09T16:25:36.778Z,1.57
2019-03-09T16:30:34.359Z,0.40
2019-03-09T16:35:32.030Z,0.80
2019-03-09T16:40:29.261Z,0.77
2019-03-09T16:45:25.287Z,0.60
2019-03-09T16:50:21.226Z,0.77
2019-03-09T16:55:17.321Z,0.50
2019-03-09T17:00:19.918Z,0.70
2019-03-09T17:05:16.172Z,0.97
2019-03-09T17:10:18.703Z,1.00
2019-03-09T17:15:17.674Z,1.17
2019-03-09T17:20:15.606Z,1.50
2019-03-09T17:25:13.047Z,2.43
2019-03-09T17:30:14.026Z,1.10
2019-03-09T17:35:10.853Z,1.27
2019-03-09T17:40:10.311Z,1.63
2019-03-09T17:45:16.077Z,1.83
2019-03-09T17:50:12.556Z,1.63
2019-03-09T17:55:10.251Z,1.60
2019-03-09T18:00:12.388Z,1.07
2019-03-09T18:05:09.065Z,1.70
2019-03-09T18:10:12.760Z,1.43
2019-03-09T18:15:09.082Z,2.40
2019-03-09T18:20:07.912Z,1.63
2019-03-09T18:25:05.240Z,2.30
2019-03-09T18:30:02.545Z,1.70
2019-03-09T18:34:58.558Z,1.80
2019-03-09T18:39:54.477Z,1.60
2019-03-09T18:44:50.455Z,1.57
2019-03-09T18:49:46.480Z,1.03
2019-03-09T18:54:42.441Z,1.30
2019-03-09T18:59:39.568Z,0.77
2019-03-09T19:04:35.588Z,0.93
2019-03-09T19:09:31.505Z,0.90
2019-03-09T19:14:27.493Z,1.30
2019-03-09T19:19:23.446Z,1.20
2019-03-09T19:24:19.481Z,1.00
2019-03-09T19:29:15.892Z,1.27
2019-03-09T19:34:11.811Z,1.00
2019-03-09T19:39:08.407Z,0.60
2019-03-09T19:44:04.329Z,1.40
2019-03-09T19:49:00.272Z,1.30
2019-03-09T19:53:56.230Z,1.27
2019-03-09T19:58:52.147Z,1.30
2019-03-09T20:03:48.114Z,1.70
2019-03-09T20:08:46.600Z,1.40
2019-03-09T20:13:42.647Z,1.10
2019-03-09T20:18:38.582Z,1.60
2019-03-09T20:23:34.501Z,1.27
2019-03-09T20:28:30.416Z,1.40
2019-03-09T20:33:26.344Z,1.60
2019-03-09T20:38:28.929Z,1.40
2019-03-09T20:43:24.957Z,1.60
2019-03-09T20:48:20.971Z,1.60
2019-03-09T20:53:17.115Z,1.60
2019-03-09T20:58:13.587Z,1.73
2019-03-09T21:03:09.672Z,2.87
2019-03-09T21:08:05.696Z,0.73
2019-03-09T21:13:06.682Z,1.90
2019-03-09T21:18:02.904Z,1.50
2019-03-09T21:22:58.917Z,1.93
2019-03-09T21:27:55.275Z,1.63
2019-03-09T21:32:51.379Z,2.10
2019-03-09T21:37:47.304Z,1.60
2019-03-09T21:42:43.432Z,1.53
2019-03-09T21:47:39.406Z,1.70
2019-03-09T21:52:35.452Z,2.07
2019-03-09T21:57:31.392Z,2.77
2019-03-09T22:02:27.449Z,1.50
2019-03-09T22:07:23.463Z,1.73
2019-03-09T22:12:19.402Z,2.10
2019-03-09T22:17:15.340Z,1.53
2019-03-09T22:22:11.257Z,1.03
2019-03-09T22:27:07.225Z,1.73
2019-03-09T22:32:03.235Z,3.40
2019-03-09T22:36:59.202Z,2.50
2019-03-09T22:41:55.130Z,1.57
2019-03-09T22:46:51.047Z,3.13
2019-03-09T22:51:47.012Z,1.37
2019-03-09T22:56:48.280Z,2.70
2019-03-09T23:01:44.322Z,3.27
2019-03-09T23:06:40.240Z,3.43
2019-03-09T23:11:36.157Z,2.00
2019-03-09T23:16:32.179Z,3.70
2019-03-09T23:21:28.153Z,2.83
2019-03-09T23:26:26.258Z,2.10
2019-03-09T23:31:22.196Z,1.93
2019-03-09T23:36:18.111Z,2.20
2019-03-09T23:41:14.361Z,2.33
2019-03-09T23:46:10.274Z,2.70
2019-03-09T23:51:06.663Z,1.70
2019-03-09T23:56:02.586Z,2.60
